createdAt,value
2019-01-16T00:00:48.459Z,98099.38
2019-01-16T00:03:44.141Z,98099.97
2019-01-16T00:06:34.796Z,98095.33
2019-01-16T00:09:21.583Z,98092.98
2019-01-16T00:12:08.187Z,98087.55
2019-01-16T00:14:58.888Z,98092.39
2019-01-16T00:17:46.955Z,98096.22
2019-01-16T00:20:34.683Z,98093.73
2019-01-16T00:23:21.111Z,98077.91
2019-01-16T00:26:14.557Z,98087.13
2019-01-16T00:29:02.293Z,98087.93
2019-01-16T00:31:48.875Z,98091.72
2019-01-16T00:34:27.183Z,98089.02
2019-01-16T00:37:14.915Z,98088.48
2019-01-16T00:39:53.743Z,98072.31
2019-01-16T00:42:40.179Z,98071.02
2019-01-16T00:45:32.071Z,98074.76
2019-01-16T00:48:28.978Z,98073.45
2019-01-16T00:51:15.423Z,98068.50
2019-01-16T00:54:02.162Z,98065.89
2019-01-16T00:57:02.572Z,98066.80
2019-01-16T00:59:50.509Z,98066.85
2019-01-16T01:02:34.237Z,98068.75
2019-01-16T01:05:22.064Z,98070.18
2019-01-16T01:08:12.812Z,98065.36
2019-01-16T01:11:07.475Z,98068.13
2019-01-16T01:13:55.416Z,98067.48
2019-01-16T01:16:36.563Z,98070.48
2019-01-16T01:19:22.955Z,98064.64
2019-01-16T01:22:10.837Z,98071.08
2019-01-16T01:25:16.357Z,98069.77
2019-01-16T01:28:07.839Z,98079.11
2019-01-16T01:30:49.977Z,98067.88
2019-01-16T01:33:26.682Z,98068.33
2019-01-16T01:36:32.527Z,98066.45
2019-01-16T01:39:29.579Z,98066.98
2019-01-16T01:42:29.654Z,98064.09
2019-01-16T01:45:20.145Z,98063.75
2019-01-16T01:47:58.999Z,98065.19
2019-01-16T01:50:45.767Z,98058.70
2019-01-16T01:53:28.326Z,98058.20
2019-01-16T01:56:14.974Z,98061.73
2019-01-16T01:58:55.499Z,98070.23
2019-01-16T02:01:46.338Z,98055.22
2019-01-16T02:04:34.038Z,98050.97
2019-01-16T02:07:19.114Z,98050.46
2019-01-16T02:10:10.020Z,98044.66
2019-01-16T02:13:00.475Z,98046.77
2019-01-16T02:15:41.986Z,98040.37
2019-01-16T02:18:28.481Z,98045.62
2019-01-16T02:21:13.465Z,98047.27
2019-01-16T02:23:50.872Z,98043.48
2019-01-16T02:26:33.720Z,98046.47
2019-01-16T02:29:27.568Z,98036.03
2019-01-16T02:32:08.417Z,98034.48
2019-01-16T02:35:02.923Z,98035.02
2019-01-16T02:37:49.783Z,98024.21
2019-01-16T02:40:37.792Z,98015.59
2019-01-16T02:43:24.147Z,98015.88
2019-01-16T02:46:17.249Z,98011.20
2019-01-16T02:49:23.385Z,98003.13
2019-01-16T02:52:11.186Z,98008.42
2019-01-16T02:54:56.795Z,98001.58
2019-01-16T02:57:43.241Z,98004.09
2019-01-16T03:00:29.887Z,97999.09
2019-01-16T03:03:18.071Z,98004.09
2019-01-16T03:06:05.797Z,97993.75
2019-01-16T03:08:52.360Z,97986.15
2019-01-16T03:11:34.497Z,97991.23
2019-01-16T03:14:22.785Z,97988.11
2019-01-16T03:17:00.944Z,97992.36
2019-01-16T03:19:40.190Z,97983.83
2019-01-16T03:22:28.017Z,97977.64
2019-01-16T03:25:14.835Z,97972.80
2019-01-16T03:27:54.769Z,97972.30
2019-01-16T03:30:48.529Z,97973.09
2019-01-16T03:33:35.354Z,97987.06
2019-01-16T03:36:13.474Z,97974.74
2019-01-16T03:38:52.386Z,97978.48
2019-01-16T03:41:58.398Z,97985.05
2019-01-16T03:44:46.185Z,97974.53
2019-01-16T03:47:51.867Z,97981.91
2019-01-16T03:50:39.639Z,97982.80
2019-01-16T03:53:25.571Z,97982.25
2019-01-16T03:56:19.383Z,97978.00
2019-01-16T03:59:12.287Z,97986.03
2019-01-16T04:01:58.855Z,97970.64
2019-01-16T04:04:47.966Z,97973.47
2019-01-16T04:07:27.996Z,97964.89
2019-01-16T04:10:34.054Z,97965.18
2019-01-16T04:13:33.930Z,97955.26
2019-01-16T04:16:20.384Z,97948.53
2019-01-16T04:18:59.594Z,97944.49
2019-01-16T04:21:47.480Z,97951.43
2019-01-16T04:24:31.599Z,97939.36
2019-01-16T04:27:19.053Z,97940.91
2019-01-16T04:30:05.861Z,97939.36
2019-01-16T04:32:44.573Z,97941.00
2019-01-16T04:35:40.377Z,97941.93
2019-01-16T04:38:28.216Z,97937.89
2019-01-16T04:41:24.147Z,97937.73
2019-01-16T04:44:21.528Z,97940.55
2019-01-16T04:47:09.247Z,97944.58
2019-01-16T04:49:54.859Z,97935.95
2019-01-16T04:52:40.207Z,97951.73
2019-01-16T04:55:26.425Z,97936.98
2019-01-16T04:58:13.351Z,97942.03
2019-01-16T05:00:48.253Z,97939.07
2019-01-16T05:03:39.008Z,97936.98
2019-01-16T05:06:26.739Z,97933.75
2019-01-16T05:09:19.318Z,97936.48
2019-01-16T05:12:10.263Z,97932.95
2019-01-16T05:14:56.997Z,97933.20
2019-01-16T05:18:03.184Z,97932.11
2019-01-16T05:20:56.338Z,97938.38
2019-01-16T05:23:34.099Z,97935.67
2019-01-16T05:26:21.821Z,97937.99
2019-01-16T05:29:21.948Z,97940.47
2019-01-16T05:32:04.094Z,97933.49
2019-01-16T05:34:54.633Z,97945.27
2019-01-16T05:37:41.371Z,97936.64
2019-01-16T05:40:24.448Z,97938.53
2019-01-16T05:43:12.168Z,97951.18
2019-01-16T05:45:53.480Z,97945.72
2019-01-16T05:48:53.523Z,97943.31
2019-01-16T05:51:38.995Z,97940.63
2019-01-16T05:54:27.171Z,97946.59
2019-01-16T05:57:06.391Z,97941.77
2019-01-16T06:00:09.155Z,97935.05
2019-01-16T06:02:58.095Z,97933.16
2019-01-16T06:05:43.250Z,97936.64
2019-01-16T06:08:31.350Z,97935.59
2019-01-16T06:11:15.849Z,97933.94
2019-01-16T06:14:04.319Z,97930.37
2019-01-16T06:16:48.010Z,97932.91
2019-01-16T06:19:27.488Z,97936.10
2019-01-16T06:22:14.154Z,97929.50
2019-01-16T06:25:02.359Z,97929.45
2019-01-16T06:28:01.720Z,97927.65
2019-01-16T06:30:48.494Z,97933.62
2019-01-16T06:33:35.296Z,97924.75
2019-01-16T06:36:41.472Z,97926.39
2019-01-16T06:39:31.968Z,97927.44
2019-01-16T06:42:18.816Z,97928.48
2019-01-16T06:45:09.488Z,97926.30
2019-01-16T06:48:05.775Z,97927.27
2019-01-16T06:50:43.025Z,97935.08
2019-01-16T06:53:33.859Z,97934.03
2019-01-16T06:56:27.347Z,97934.03
2019-01-16T06:59:22.318Z,97934.35
2019-01-16T07:02:08.691Z,97940.56
2019-01-16T07:04:55.430Z,97941.66
2019-01-16T07:07:41.879Z,97944.09
2019-01-16T07:10:28.639Z,97940.39
2019-01-16T07:13:15.043Z,97935.05
2019-01-16T07:16:08.878Z,97939.30
2019-01-16T07:18:50.485Z,97940.82
2019-01-16T07:21:37.250Z,97939.98
2019-01-16T07:24:40.488Z,97938.64
2019-01-16T07:27:33.965Z,97943.94
2019-01-16T07:30:32.669Z,97937.39
2019-01-16T07:33:10.969Z,97942.44
2019-01-16T07:35:58.916Z,97936.22
2019-01-16T07:38:45.523Z,97938.03
2019-01-16T07:41:26.272Z,97940.84
2019-01-16T07:44:07.270Z,97941.05
2019-01-16T07:46:53.037Z,97948.73
2019-01-16T07:49:45.100Z,97940.20
2019-01-16T07:52:36.228Z,97942.05
2019-01-16T07:55:27.176Z,97940.95
2019-01-16T07:58:26.847Z,97940.63
2019-01-16T08:01:14.575Z,97943.81
2019-01-16T08:04:14.505Z,97936.63
2019-01-16T08:07:00.362Z,97935.91
2019-01-16T08:09:57.685Z,97943.52
2019-01-16T08:12:44.499Z,97943.60
2019-01-16T08:15:31.128Z,97939.20
2019-01-16T08:18:27.064Z,97952.06
2019-01-16T08:21:17.939Z,97948.57
2019-01-16T08:24:04.591Z,97958.33
2019-01-16T08:26:55.283Z,97950.56
2019-01-16T08:29:46.235Z,97952.37
2019-01-16T08:32:24.658Z,97947.74
2019-01-16T08:35:05.741Z,97955.13
2019-01-16T08:38:05.831Z,97953.45
2019-01-16T08:41:12.091Z,97956.27
2019-01-16T08:44:13.871Z,97948.32
2019-01-16T08:46:50.304Z,97951.13
2019-01-16T08:49:41.118Z,97947.48
2019-01-16T08:52:19.497Z,97956.22
2019-01-16T08:55:16.467Z,97956.17
2019-01-16T08:58:03.173Z,97955.04
2019-01-16T09:01:01.188Z,97949.46
2019-01-16T09:03:49.064Z,97941.69
2019-01-16T09:06:39.653Z,97929.98
2019-01-16T09:09:18.614Z,97937.05
2019-01-16T09:12:15.764Z,97942.81
2019-01-16T09:15:02.469Z,97939.55
2019-01-16T09:17:43.323Z,97931.68
2019-01-16T09:20:31.135Z,97934.67
2019-01-16T09:23:13.239Z,97928.98
2019-01-16T09:26:16.301Z,97926.13
2019-01-16T09:29:03.283Z,97926.53
2019-01-16T09:31:49.939Z,97927.14
2019-01-16T09:34:33.049Z,97921.59
2019-01-16T09:37:17.163Z,97922.99
2019-01-16T09:40:11.018Z,97915.88
2019-01-16T09:43:17.108Z,97898.56
2019-01-16T09:45:57.426Z,97905.15
2019-01-16T09:48:44.168Z,97911.56
2019-01-16T09:51:34.910Z,97914.19
2019-01-16T09:54:18.702Z,97914.92
2019-01-16T09:57:06.434Z,97910.00
2019-01-16T09:59:45.861Z,97901.19
2019-01-16T10:02:42.993Z,97888.33
2019-01-16T10:05:23.732Z,97888.62
2019-01-16T10:08:20.688Z,97892.38
2019-01-16T10:11:11.459Z,97896.18
2019-01-16T10:14:05.055Z,97878.31
2019-01-16T10:16:55.805Z,97871.09
2019-01-16T10:19:42.028Z,97868.95
2019-01-16T10:22:20.213Z,97863.95
2019-01-16T10:25:01.264Z,97863.75
2019-01-16T10:28:02.449Z,97867.97
2019-01-16T10:30:56.027Z,97861.47
2019-01-16T10:33:46.885Z,97863.44
2019-01-16T10:36:39.531Z,97852.67
2019-01-16T10:39:33.116Z,97848.70
2019-01-16T10:42:32.856Z,97839.06
2019-01-16T10:45:32.847Z,97841.88
2019-01-16T10:48:14.014Z,97836.45
2019-01-16T10:51:03.293Z,97833.29
2019-01-16T10:54:04.730Z,97822.52
2019-01-16T10:56:52.465Z,97819.08
2019-01-16T10:59:34.970Z,97811.56
2019-01-16T11:02:23.054Z,97796.59
2019-01-16T11:05:19.900Z,97782.61
2019-01-16T11:08:06.452Z,97787.70
2019-01-16T11:11:00.167Z,97777.19
2019-01-16T11:13:53.943Z,97772.48
2019-01-16T11:16:31.107Z,97769.28
2019-01-16T11:19:18.839Z,97758.70
2019-01-16T11:22:22.029Z,97758.28
2019-01-16T11:25:09.283Z,97747.32
2019-01-16T11:27:57.407Z,97741.56
2019-01-16T11:30:43.784Z,97755.66
2019-01-16T11:33:30.663Z,97744.28
2019-01-16T11:36:16.087Z,97738.64
2019-01-16T11:39:19.268Z,97731.80
2019-01-16T11:42:11.163Z,97729.50
2019-01-16T11:45:34.239Z,97724.13
2019-01-16T11:48:16.475Z,97732.28
2019-01-16T11:51:09.703Z,97721.12
2019-01-16T11:53:48.466Z,97724.33
2019-01-16T11:56:23.990Z,97716.44
2019-01-16T11:59:04.068Z,97711.93
2019-01-16T12:01:58.013Z,97708.01
2019-01-16T12:04:45.804Z,97706.58
2019-01-16T12:07:39.869Z,97701.92
2019-01-16T12:10:40.662Z,97694.84
2019-01-16T12:13:23.912Z,97681.72
2019-01-16T12:16:17.448Z,97688.77
2019-01-16T12:19:04.054Z,97686.67
2019-01-16T12:21:52.175Z,97671.58
2019-01-16T12:24:48.716Z,97673.47
2019-01-16T12:27:36.532Z,97670.70
2019-01-16T12:30:24.800Z,97656.83
2019-01-16T12:33:21.811Z,97661.47
2019-01-16T12:36:15.308Z,97662.81
2019-01-16T12:38:57.113Z,97645.28
2019-01-16T12:41:44.907Z,97655.22
2019-01-16T12:44:33.270Z,97644.55
2019-01-16T12:47:15.318Z,97647.05
2019-01-16T12:49:55.315Z,97638.00
2019-01-16T12:52:42.006Z,97641.02
2019-01-16T12:55:38.919Z,97636.63
2019-01-16T12:58:39.315Z,97633.31
2019-01-16T13:01:33.607Z,97628.45
2019-01-16T13:04:20.180Z,97634.75
2019-01-16T13:07:07.058Z,97623.64
2019-01-16T13:09:53.512Z,97624.11
2019-01-16T13:12:41.629Z,97613.31
2019-01-16T13:15:38.644Z,97614.36
2019-01-16T13:18:26.381Z,97618.53
2019-01-16T13:21:14.090Z,97598.27
2019-01-16T13:23:53.186Z,97594.20
2019-01-16T13:26:29.228Z,97591.28
2019-01-16T13:29:19.852Z,97584.23
2019-01-16T13:32:20.152Z,97588.31
2019-01-16T13:35:07.868Z,97586.71
2019-01-16T13:37:54.957Z,97581.39
2019-01-16T13:40:43.947Z,97588.00
2019-01-16T13:43:37.923Z,97581.92
2019-01-16T13:46:31.572Z,97571.56
2019-01-16T13:49:19.347Z,97563.38
2019-01-16T13:51:57.072Z,97566.06
2019-01-16T13:54:47.803Z,97561.13
2019-01-16T13:57:31.151Z,97553.41
2019-01-16T14:00:19.015Z,97546.14
2019-01-16T14:03:05.778Z,97547.27
2019-01-16T14:05:48.728Z,97538.13
2019-01-16T14:08:42.498Z,97539.66
2019-01-16T14:11:28.884Z,97543.44
2019-01-16T14:14:15.210Z,97532.28
2019-01-16T14:17:02.935Z,97524.27
2019-01-16T14:19:39.676Z,97516.48
2019-01-16T14:22:26.206Z,97513.17
2019-01-16T14:25:12.696Z,97511.55
2019-01-16T14:27:59.328Z,97507.68
2019-01-16T14:30:44.308Z,97501.83
2019-01-16T14:33:34.973Z,97508.84
2019-01-16T14:36:25.947Z,97509.06
2019-01-16T14:39:15.922Z,97508.37
2019-01-16T14:42:02.569Z,97509.24
2019-01-16T14:44:53.323Z,97506.45
2019-01-16T14:47:33.592Z,97515.45
2019-01-16T14:50:13.577Z,97516.70
2019-01-16T14:53:01.379Z,97518.30
2019-01-16T14:56:07.638Z,97522.59
2019-01-16T14:59:03.427Z,97515.09
2019-01-16T15:02:03.328Z,97507.73
2019-01-16T15:05:03.211Z,97502.41
2019-01-16T15:07:59.894Z,97500.94
2019-01-16T15:10:46.500Z,97503.09
2019-01-16T15:13:37.210Z,97511.13
2019-01-16T15:16:35.228Z,97504.28
2019-01-16T15:19:23.142Z,97510.98
2019-01-16T15:22:16.737Z,97512.19
2019-01-16T15:25:02.359Z,97508.98
2019-01-16T15:27:40.785Z,97508.87
2019-01-16T15:30:30.960Z,97514.31
2019-01-16T15:33:18.364Z,97510.50
2019-01-16T15:36:02.602Z,97506.14
2019-01-16T15:38:56.476Z,97516.34
2019-01-16T15:41:44.306Z,97508.16
2019-01-16T15:44:50.580Z,97502.28
2019-01-16T15:47:33.647Z,97513.17
2019-01-16T15:50:24.145Z,97506.99
2019-01-16T15:53:05.730Z,97501.58
2019-01-16T15:55:53.469Z,97494.09
2019-01-16T15:58:37.650Z,97496.55
2019-01-16T16:01:25.452Z,97498.31
2019-01-16T16:04:11.323Z,97489.78
2019-01-16T16:06:59.031Z,97488.05
2019-01-16T16:09:46.492Z,97474.66
2019-01-16T16:12:30.442Z,97468.44
2019-01-16T16:15:18.616Z,97473.95
2019-01-16T16:18:06.362Z,97473.53
2019-01-16T16:20:55.164Z,97469.48
2019-01-16T16:23:38.811Z,97473.88
2019-01-16T16:26:28.770Z,97474.56
2019-01-16T16:29:20.118Z,97469.98
2019-01-16T16:32:13.978Z,97464.48
2019-01-16T16:35:01.748Z,97465.89
2019-01-16T16:37:55.916Z,97460.67
2019-01-16T16:40:56.055Z,97458.34
2019-01-16T16:43:38.320Z,97455.79
2019-01-16T16:46:26.046Z,97449.44
2019-01-16T16:49:29.053Z,97453.64
2019-01-16T16:52:15.949Z,97453.23
2019-01-16T16:55:08.799Z,97455.95
2019-01-16T16:57:54.796Z,97460.55
2019-01-16T17:00:45.754Z,97451.88
2019-01-16T17:03:32.161Z,97447.95
2019-01-16T17:06:13.179Z,97449.37
2019-01-16T17:08:59.676Z,97451.21
2019-01-16T17:11:46.473Z,97439.66
2019-01-16T17:14:32.634Z,97442.02
2019-01-16T17:17:26.430Z,97444.77
2019-01-16T17:20:20.218Z,97443.97
2019-01-16T17:23:07.368Z,97448.25
2019-01-16T17:25:55.048Z,97439.72
2019-01-16T17:28:41.688Z,97436.84
2019-01-16T17:31:19.814Z,97436.16
2019-01-16T17:34:14.636Z,97427.78
2019-01-16T17:36:53.139Z,97433.41
2019-01-16T17:39:44.063Z,97429.11
2019-01-16T17:42:29.554Z,97423.36
2019-01-16T17:45:20.047Z,97428.40
2019-01-16T17:48:13.846Z,97424.56
2019-01-16T17:51:16.958Z,97421.14
2019-01-16T17:54:03.813Z,97418.34
2019-01-16T17:56:55.202Z,97419.59
2019-01-16T17:59:43.455Z,97426.27
2019-01-16T18:02:40.500Z,97424.42
2019-01-16T18:05:21.197Z,97425.27
2019-01-16T18:08:01.034Z,97418.59
2019-01-16T18:10:47.779Z,97413.73
2019-01-16T18:13:34.465Z,97414.47
2019-01-16T18:16:33.217Z,97411.59
2019-01-16T18:19:16.023Z,97415.37
2019-01-16T18:22:09.635Z,97416.77
2019-01-16T18:24:56.335Z,97414.02
2019-01-16T18:27:38.841Z,97415.94
2019-01-16T18:30:28.658Z,97411.63
2019-01-16T18:33:09.597Z,97408.29
2019-01-16T18:35:55.982Z,97408.29
2019-01-16T18:38:46.514Z,97411.67
2019-01-16T18:41:32.979Z,97414.20
2019-01-16T18:44:19.356Z,97404.70
2019-01-16T18:47:16.182Z,97406.66
2019-01-16T18:50:02.651Z,97408.64
2019-01-16T18:52:53.353Z,97401.48
2019-01-16T18:55:34.115Z,97404.76
2019-01-16T18:58:15.056Z,97401.37
2019-01-16T19:01:00.178Z,97405.94
2019-01-16T19:03:38.139Z,97403.80
2019-01-16T19:06:18.605Z,97397.09
2019-01-16T19:09:10.744Z,97397.46
2019-01-16T19:11:59.121Z,97397.75
2019-01-16T19:14:49.948Z,97390.46
2019-01-16T19:17:47.411Z,97387.88
2019-01-16T19:20:36.093Z,97384.98
2019-01-16T19:23:30.455Z,97375.64
2019-01-16T19:26:16.825Z,97374.65
2019-01-16T19:28:57.195Z,97378.23
2019-01-16T19:31:45.720Z,97370.82
2019-01-16T19:34:36.954Z,97376.48
2019-01-16T19:37:27.991Z,97379.84
2019-01-16T19:40:15.570Z,97378.25
2019-01-16T19:43:06.074Z,97384.74
2019-01-16T19:45:53.994Z,97377.58
2019-01-16T19:48:47.577Z,97375.25
2019-01-16T19:51:34.028Z,97384.38
2019-01-16T19:54:19.973Z,97385.01
2019-01-16T19:57:12.144Z,97379.66
2019-01-16T19:59:58.440Z,97380.45
2019-01-16T20:03:01.652Z,97381.33
2019-01-16T20:06:01.605Z,97385.59
2019-01-16T20:08:41.455Z,97383.33
2019-01-16T20:11:28.351Z,97383.58
2019-01-16T20:14:34.298Z,97381.23
2019-01-16T20:17:20.626Z,97382.11
2019-01-16T20:20:05.575Z,97383.78
2019-01-16T20:22:53.367Z,97373.06
2019-01-16T20:25:39.743Z,97376.84
2019-01-16T20:28:26.236Z,97373.38
2019-01-16T20:31:29.503Z,97367.95
2019-01-16T20:34:20.112Z,97375.30
2019-01-16T20:37:00.897Z,97375.77
2019-01-16T20:39:54.942Z,97371.53
2019-01-16T20:42:42.808Z,97364.83
2019-01-16T20:45:22.930Z,97360.39
2019-01-16T20:48:13.922Z,97355.03
2019-01-16T20:51:00.328Z,97349.00
2019-01-16T20:54:18.032Z,97349.59
2019-01-16T20:56:54.736Z,97347.41
2019-01-16T20:59:42.716Z,97346.58
2019-01-16T21:02:39.557Z,97348.04
2019-01-16T21:05:26.369Z,97357.17
2019-01-16T21:08:20.396Z,97360.81
2019-01-16T21:11:14.149Z,97363.82
2019-01-16T21:14:00.632Z,97363.95
2019-01-16T21:17:03.526Z,97355.58
2019-01-16T21:19:54.029Z,97346.53
2019-01-16T21:22:42.367Z,97345.28
2019-01-16T21:25:30.067Z,97345.82
2019-01-16T21:28:24.223Z,97350.39
2019-01-16T21:31:19.689Z,97342.80
2019-01-16T21:34:11.391Z,97334.60
2019-01-16T21:36:59.438Z,97331.96
2019-01-16T21:39:46.038Z,97329.66
2019-01-16T21:42:46.166Z,97327.85
2019-01-16T21:45:30.110Z,97327.48
2019-01-16T21:48:16.824Z,97326.77
2019-01-16T21:50:54.818Z,97327.48
2019-01-16T21:53:46.328Z,97322.55
2019-01-16T21:56:27.316Z,97323.13
2019-01-16T21:59:13.698Z,97328.54
2019-01-16T22:02:00.574Z,97323.72
2019-01-16T22:04:41.612Z,97326.03
2019-01-16T22:07:45.366Z,97323.22
2019-01-16T22:10:40.635Z,97323.67
2019-01-16T22:13:31.459Z,97319.41
2019-01-16T22:16:28.277Z,97318.02
2019-01-16T22:19:16.091Z,97312.95
2019-01-16T22:22:02.500Z,97314.98
2019-01-16T22:24:49.445Z,97316.89
2019-01-16T22:27:35.771Z,97317.26
2019-01-16T22:30:24.667Z,97323.16
2019-01-16T22:33:18.599Z,97316.28
2019-01-16T22:36:05.258Z,97316.41
2019-01-16T22:38:54.762Z,97322.56
2019-01-16T22:41:54.670Z,97317.78
2019-01-16T22:44:40.474Z,97311.64
2019-01-16T22:47:47.426Z,97317.78
2019-01-16T22:50:34.030Z,97310.37
2019-01-16T22:53:20.388Z,97308.20
2019-01-16T22:56:26.272Z,97308.23
2019-01-16T22:59:13.993Z,97303.39
2019-01-16T23:02:10.971Z,97296.75
2019-01-16T23:04:57.378Z,97295.31
2019-01-16T23:07:34.562Z,97286.72
2019-01-16T23:10:22.506Z,97288.66
2019-01-16T23:13:08.830Z,97282.58
2019-01-16T23:16:06.900Z,97283.00
2019-01-16T23:18:48.158Z,97274.21
2019-01-16T23:21:34.893Z,97277.11
2019-01-16T23:24:15.784Z,97278.79
2019-01-16T23:27:06.765Z,97277.83
2019-01-16T23:29:50.265Z,97271.66
2019-01-16T23:32:52.883Z,97264.27
2019-01-16T23:35:29.843Z,97262.14
2019-01-16T23:38:20.395Z,97259.89
2019-01-16T23:41:10.211Z,97257.44
2019-01-16T23:43:57.035Z,97257.75
2019-01-16T23:46:43.456Z,97256.64
2019-01-16T23:49:36.786Z,97246.59
2019-01-16T23:52:23.238Z,97247.19
2019-01-16T23:54:59.071Z,97251.42
2019-01-16T23:57:40.324Z,97252.75
